TimeAKST,TemperatureF,Dew PointF,Humidity,Sea Level PressureIn,VisibilityMPH,Wind Direction,Wind SpeedMPH,Gust SpeedMPH,PrecipitationIn,Events,Conditions,WindDirDegrees,DateUTC
12:53 AM,33.1,30.9,92,29.96,10.0,North,4.6,-,0.00,,Overcast,360,2013-03-02 09:53:00
1:53 AM,33.1,30.9,92,29.97,10.0,Calm,Calm,-,N/A,,Overcast,0,2013-03-02 10:53:00
3:53 AM,32.0,30.9,96,29.96,10.0,Calm,Calm,-,N/A,,Overcast,0,2013-03-02 12:53:00
4:53 AM,30.9,28.9,92,29.96,10.0,Calm,Calm,-,N/A,,Overcast,0,2013-03-02 13:53:00
5:53 AM,30.0,28.0,92,29.96,10.0,Calm,Calm,-,N/A,,Scattered Clouds,0,2013-03-02 14:53:00
6:53 AM,28.9,28.0,96,29.96,10.0,Calm,Calm,-,N/A,,Scattered Clouds,0,2013-03-02 15:53:00
7:53 AM,27.0,25.0,92,29.96,10.0,Calm,Calm,-,N/A,,Scattered Clouds,0,2013-03-02 16:53:00
8:53 AM,27.0,26.1,96,29.95,10.0,Calm,Calm,-,N/A,,Scattered Clouds,0,2013-03-02 17:53:00
9:53 AM,30.9,30.0,96,29.96,10.0,Calm,Calm,-,N/A,,Partly Cloudy,0,2013-03-02 18:53:00
10:53 AM,33.1,27.0,78,29.99,10.0,Calm,Calm,-,N/A,,Scattered Clouds,0,2013-03-02 19:53:00
11:53 AM,36.0,28.0,73,30.00,10.0,Calm,Calm,-,N/A,,Scattered Clouds,0,2013-03-02 20:53:00
12:53 PM,39.9,28.9,65,30.01,10.0,Calm,Calm,-,N/A,,Scattered Clouds,0,2013-03-02 21:53:00
1:53 PM,39.9,28.9,65,30.01,10.0,South,3.5,-,N/A,,Scattered Clouds,190,2013-03-02 22:53:00
2:53 PM,39.9,28.9,65,30.01,10.0,WSW,3.5,-,N/A,,Scattered Clouds,240,2013-03-02 23:53:00
3:53 PM,39.0,28.0,65,30.02,10.0,WSW,3.5,-,N/A,,Mostly Cloudy,250,2013-03-03 00:53:00
4:53 PM,37.9,28.9,70,30.02,10.0,WNW,4.6,-,N/A,,Mostly Cloudy,300,2013-03-03 01:53:00
5:53 PM,35.1,28.9,78,30.05,10.0,Calm,Calm,-,N/A,,Partly Cloudy,0,2013-03-03 02:53:00
6:53 PM,30.9,28.0,89,30.06,10.0,Calm,Calm,-,N/A,,Clear,0,2013-03-03 03:53:00
7:53 PM,28.9,26.1,89,30.07,10.0,East,4.6,-,N/A,,Overcast,100,2013-03-03 04:53:00
8:53 PM,30.0,28.0,92,30.08,10.0,Calm,Calm,-,N/A,,Overcast,0,2013-03-03 05:53:00
9:53 PM,30.0,28.0,92,30.11,10.0,Calm,Calm,-,N/A,,Overcast,0,2013-03-03 06:53:00
10:53 PM,30.9,28.9,92,30.13,10.0,Calm,Calm,-,0.00,,Overcast,0,2013-03-03 07:53:00
11:23 PM,30.2,28.4,93,30.14,4.0,Calm,Calm,-,0.00,Snow,Light Snow,0,2013-03-03 08:23:00
11:39 PM,30.2,28.4,93,30.14,10.0,Calm,Calm,-,0.00,,Overcast,0,2013-03-03 08:39:00
11:53 PM,32.0,28.9,88,30.14,10.0,Calm,Calm,-,0.00,,Overcast,0,2013-03-03 08:53:00